Time;durP1;ratioP1;P1;durP2;ratioP2;P2;SDS_P1;SDS_P2;PMS_P1;PMS_P2;Temp;Humidity;BMP_temperature;BMP_pressure;BME280_temperature;BME280_humidity;BME280_pressure;Samples;Min_cycle;Max_cycle;Signal;HPM_P1;HPM_P2
2023/07/12 00:02:00;;;;;;;7.50;5.00;;;;;;;19.13;53.45;99938.11;129426;1265;115414;-69
2023/07/12 00:05:02;;;;;;;7.90;5.30;;;;;;;19.08;53.67;99932.20;129355;1271;114837;-68
2023/07/12 00:08:05;;;;;;;7.50;4.90;;;;;;;19.04;53.68;99928.06;129388;1268;114856;-69
2023/07/12 00:11:17;;;;;;;7.70;4.90;;;;;;;19.00;53.77;99917.55;129246;1287;114993;-68
2023/07/12 00:14:19;;;;;;;12.50;5.40;;;;;;;18.95;53.98;99910.95;129394;1265;128788;-66
2023/07/12 00:17:21;;;;;;;10.40;5.30;;;;;;;18.90;54.07;99916.47;129348;1268;114801;-67
2023/07/12 00:20:23;;;;;;;6.80;4.50;;;;;;;18.86;54.25;99913.43;129428;1287;114849;-69
2023/07/12 00:23:25;;;;;;;8.70;5.80;;;;;;;18.81;54.22;99908.70;129339;1264;114789;-66
2023/07/12 00:26:33;;;;;;;7.90;4.60;;;;;;;18.77;54.33;99904.55;129303;1268;115209;-68
2023/07/12 00:29:35;;;;;;;10.40;5.10;;;;;;;18.74;54.57;99904.89;129162;1273;114969;-68
2023/07/12 00:32:37;;;;;;;8.50;4.90;;;;;;;18.70;54.63;99902.51;129368;1268;114839;-68
2023/07/12 00:35:42;;;;;;;6.90;5.00;;;;;;;18.67;54.74;99903.50;129374;1287;114775;-66
2023/07/12 00:38:44;;;;;;;6.20;5.20;;;;;;;18.63;54.94;99903.64;129162;1265;114803;-69
2023/07/12 00:42:06;;;;;;;23.80;5.40;;;;;;;18.59;54.94;99902.20;129300;1287;114759;-69
2023/07/12 00:45:09;;;;;;;6.20;4.50;;;;;;;18.56;55.07;99893.10;129046;1273;114933;-66
2023/07/12 00:48:12;;;;;;;8.60;5.10;;;;;;;18.52;55.18;99887.30;129098;1268;114867;-65
2023/07/12 00:51:36;;;;;;;9.90;5.00;;;;;;;18.49;55.31;99888.45;129254;1270;114904;-65
2023/07/12 00:55:03;;;;;;;10.30;6.10;;;;;;;18.47;55.48;99891.56;129356;1287;114784;-65
2023/07/12 00:58:05;;;;;;;10.90;5.70;;;;;;;18.43;55.52;99885.75;129361;1278;114759;-67
2023/07/12 01:01:09;;;;;;;7.50;5.10;;;;;;;18.40;55.59;99880.41;129302;1268;115306;-67
2023/07/12 01:04:13;;;;;;;;;;;;;;;18.37;55.79;99875.05;129132;1273;114870;-65
2023/07/12 01:07:16;;;;;;;9.10;5.50;;;;;;;18.34;55.97;99873.56;129358;1268;128155;-65
2023/07/12 01:10:18;;;;;;;7.50;4.90;;;;;;;18.32;56.00;99871.00;129115;1267;114921;-66
2023/07/12 01:13:21;;;;;;;6.70;4.70;;;;;;;18.30;56.06;99867.52;129332;1263;114771;-67
2023/07/12 01:16:25;;;;;;;6.20;4.80;;;;;;;18.28;56.21;99865.20;129013;1264;114783;-66
2023/07/12 01:19:28;;;;;;;7.80;5.50;;;;;;;18.27;56.31;99859.04;129285;1266;114912;-66
2023/07/12 01:22:30;;;;;;;7.60;5.30;;;;;;;18.25;56.51;99856.46;129067;1273;114858;-67
2023/07/12 01:25:44;;;;;;;10.20;5.00;;;;;;;18.22;56.66;99849.27;129372;1264;114786;-65
2023/07/12 01:28:49;;;;;;;8.60;4.80;;;;;;;18.19;56.83;99849.05;129274;1265;115002;-65
2023/07/12 01:31:52;;;;;;;8.20;5.10;;;;;;;18.16;56.82;99840.39;129370;1264;115166;-69
2023/07/12 01:34:53;;;;;;;9.40;5.20;;;;;;;18.15;56.82;99829.33;129266;1268;115117;-68
2023/07/12 01:37:56;;;;;;;6.40;5.00;;;;;;;18.13;56.95;99830.23;129384;1264;114780;-69
2023/07/12 01:40:58;;;;;;;7.30;5.70;;;;;;;18.12;57.07;99820.73;129331;1267;114830;-67
2023/07/12 01:44:00;;;;;;;7.40;5.10;;;;;;;18.11;57.27;99809.77;129297;1267;114830;-69
2023/07/12 01:47:03;;;;;;;8.90;5.50;;;;;;;18.10;57.20;99805.55;129354;1267;114746;-66
2023/07/12 01:50:05;;;;;;;10.00;6.10;;;;;;;18.09;57.40;99801.84;129410;1268;115157;-68
2023/07/12 01:53:10;;;;;;;7.60;4.90;;;;;;;18.08;57.31;99796.98;129536;1287;114717;-67
2023/07/12 01:56:13;;;;;;;9.60;5.40;;;;;;;18.08;57.37;99794.84;129305;1272;116490;-67
2023/07/12 01:59:15;;;;;;;12.10;6.00;;;;;;;18.07;57.51;99790.59;129168;1266;114895;-68
2023/07/12 02:02:17;;;;;;;12.00;5.30;;;;;;;18.06;57.62;99787.75;129261;1284;115355;-68
2023/07/12 02:05:21;;;;;;;9.80;5.90;;;;;;;18.06;57.67;99779.31;129360;1265;114853;-68
2023/07/12 02:08:24;;;;;;;11.60;5.90;;;;;;;18.04;57.77;99777.13;129335;1270;114814;-67
2023/07/12 02:11:26;;;;;;;8.80;5.20;;;;;;;18.02;57.86;99771.16;129250;1269;114847;-68
2023/07/12 02:14:28;;;;;;;8.00;5.10;;;;;;;17.99;57.99;99768.54;129237;1271;114928;-68
2023/07/12 02:17:30;;;;;;;10.50;6.40;;;;;;;17.97;57.97;99764.37;129294;1288;114740;-68
2023/07/12 02:20:32;;;;;;;12.70;6.80;;;;;;;17.94;58.09;99757.22;129267;1283;114850;-66
2023/07/12 02:23:34;;;;;;;10.40;6.60;;;;;;;17.92;58.04;99753.58;129356;1265;114894;-67
2023/07/12 02:26:36;;;;;;;12.30;5.80;;;;;;;17.90;58.24;99746.13;129362;1265;114763;-68
2023/07/12 02:29:38;;;;;;;9.50;6.00;;;;;;;17.90;58.27;99744.70;129244;1275;114788;-69
2023/07/12 02:32:40;;;;;;;12.40;5.80;;;;;;;17.90;58.32;99741.48;129287;1265;114791;-68
2023/07/12 02:35:42;;;;;;;10.40;5.90;;;;;;;17.88;58.54;99745.58;129377;1271;115452;-68
2023/07/12 02:38:46;;;;;;;10.20;5.70;;;;;;;17.89;58.50;99747.55;129254;1271;114665;-68
2023/07/12 02:41:48;;;;;;;12.10;6.20;;;;;;;17.89;58.60;99750.23;129316;1269;116398;-66
2023/07/12 02:44:51;;;;;;;13.00;5.90;;;;;;;17.89;58.62;99747.87;129250;1270;114844;-68
2023/07/12 02:47:53;;;;;;;10.10;6.00;;;;;;;17.90;58.63;99748.00;129335;1288;114782;-68
2023/07/12 02:50:55;;;;;;;9.40;5.60;;;;;;;17.90;58.61;99747.95;129227;1271;115301;-67
2023/07/12 02:53:57;;;;;;;10.20;5.10;;;;;;;17.90;58.75;99740.92;129295;1270;115178;-67
2023/07/12 02:57:00;;;;;;;10.50;5.40;;;;;;;17.89;58.83;99732.66;129336;1270;114999;-69
2023/07/12 03:00:03;;;;;;;11.10;4.90;;;;;;;17.90;58.86;99733.71;129403;1265;114859;-67
2023/07/12 03:03:05;;;;;;;11.40;5.20;;;;;;;17.91;58.91;99725.69;129316;1265;116359;-67
2023/07/12 03:06:11;;;;;;;10.80;5.10;;;;;;;17.94;58.99;99726.35;129318;1271;115344;-67
2023/07/12 03:09:13;;;;;;;7.50;4.90;;;;;;;17.97;59.00;99724.24;129071;1266;115214;-67
2023/07/12 03:12:15;;;;;;;10.90;5.50;;;;;;;18.01;59.04;99722.30;129259;1270;115136;-67
2023/07/12 03:15:17;;;;;;;10.20;6.00;;;;;;;18.05;59.04;99713.99;129292;1269;114778;-68
2023/07/12 03:18:19;;;;;;;16.30;5.70;;;;;;;18.07;59.09;99707.81;129272;1271;114798;-67
2023/07/12 03:21:21;;;;;;;10.70;6.10;;;;;;;18.10;59.12;99699.63;129217;1288;114817;-67
2023/07/12 03:24:23;;;;;;;9.10;5.80;;;;;;;18.12;59.07;99692.04;129336;1270;114764;-68
2023/07/12 03:27:26;;;;;;;8.60;4.80;;;;;;;18.13;59.17;99679.25;129189;1288;129125;-68
2023/07/12 03:30:28;;;;;;;12.10;5.60;;;;;;;18.14;59.20;99666.36;129103;1270;326365;-68
2023/07/12 03:33:30;;;;;;;8.60;4.90;;;;;;;18.15;59.23;99663.73;129410;1265;115252;-68
2023/07/12 03:36:32;;;;;;;7.70;5.20;;;;;;;18.17;59.29;99656.52;128959;1270;114823;-68
2023/07/12 03:39:35;;;;;;;8.20;5.20;;;;;;;18.19;59.27;99658.46;129117;1270;115210;-69
2023/07/12 03:42:37;;;;;;;10.20;4.80;;;;;;;18.22;59.30;99662.88;129162;1270;116359;-69
2023/07/12 03:45:42;;;;;;;9.80;5.30;;;;;;;18.25;59.26;99664.66;129033;1270;114783;-67
2023/07/12 03:48:45;;;;;;;9.80;5.40;;;;;;;18.29;59.32;99658.66;129227;1268;127953;-69
2023/07/12 03:51:47;;;;;;;7.60;5.50;;;;;;;18.32;59.32;99648.22;129277;1267;114886;-67
2023/07/12 03:54:49;;;;;;;8.80;4.90;;;;;;;18.35;59.34;99644.74;129275;1267;114834;-68
2023/07/12 03:57:51;;;;;;;9.50;4.80;;;;;;;18.36;59.46;99640.70;129104;1282;114880;-69
2023/07/12 04:00:53;;;;;;;7.40;5.10;;;;;;;18.39;59.55;99636.40;129176;1268;114788;-67
2023/07/12 04:03:55;;;;;;;9.70;5.20;;;;;;;18.44;59.54;99637.77;129210;1271;114725;-67
2023/07/12 04:06:59;;;;;;;14.00;5.90;;;;;;;18.49;59.56;99643.08;129291;1281;114896;-67
2023/07/12 04:10:01;;;;;;;8.80;5.60;;;;;;;18.57;59.66;99644.47;129120;1269;127583;-64
2023/07/12 04:13:03;;;;;;;8.40;5.70;;;;;;;18.67;59.61;99657.36;129266;1269;114765;-66
2023/07/12 04:16:05;;;;;;;11.10;5.40;;;;;;;18.77;59.72;99658.55;129263;1265;114990;-68
2023/07/12 04:19:08;;;;;;;14.10;6.90;;;;;;;18.88;59.74;99654.80;129295;1270;114759;-66
2023/07/12 04:22:10;;;;;;;9.90;4.70;;;;;;;18.99;59.54;99659.94;129254;1266;114695;-66
2023/07/12 04:25:12;;;;;;;12.40;4.70;;;;;;;19.12;59.47;99654.05;129227;1288;115154;-69
2023/07/12 04:28:14;;;;;;;6.90;4.50;;;;;;;19.23;59.17;99654.02;129282;1271;114955;-68
2023/07/12 04:31:18;;;;;;;9.60;4.40;;;;;;;19.35;59.11;99657.60;129279;1269;128005;-66
2023/07/12 04:34:20;;;;;;;8.20;4.10;;;;;;;19.46;59.05;99662.89;129001;1286;114897;-66
2023/07/12 04:37:23;;;;;;;7.80;4.20;;;;;;;19.56;58.97;99649.55;129165;1265;114795;-69
2023/07/12 04:40:26;;;;;;;7.00;4.30;;;;;;;19.68;58.69;99651.02;129341;1271;115191;-70
2023/07/12 04:43:28;;;;;;;9.10;4.40;;;;;;;19.81;58.64;99660.61;129352;1267;114719;-68
2023/07/12 04:46:30;;;;;;;6.80;4.80;;;;;;;19.96;58.50;99667.34;129151;1288;114959;-67
2023/07/12 04:49:33;;;;;;;11.00;4.90;;;;;;;20.12;58.54;99668.80;129248;1270;115170;-65
2023/07/12 04:52:36;;;;;;;7.00;4.50;;;;;;;20.30;58.13;99674.48;129316;1271;114736;-65
2023/07/12 04:55:38;;;;;;;7.30;4.50;;;;;;;20.55;58.09;99682.30;129280;1284;115329;-67
2023/07/12 04:58:40;;;;;;;7.70;4.60;;;;;;;20.89;58.19;99691.50;129259;1288;114866;-67
2023/07/12 05:01:43;;;;;;;9.20;4.70;;;;;;;21.24;57.96;99686.70;129357;1269;114744;-66
2023/07/12 05:04:45;;;;;;;7.60;4.20;;;;;;;21.54;57.38;99683.05;129094;1269;116486;-68
2023/07/12 05:07:50;;;;;;;16.40;5.30;;;;;;;21.73;56.67;99678.86;129182;1270;114780;-66
2023/07/12 05:10:59;;;;;;;14.30;5.90;;;;;;;21.83;56.21;99675.19;129144;1268;128969;-67
2023/07/12 05:14:01;;;;;;;8.70;4.90;;;;;;;21.95;55.93;99668.34;128998;1270;115239;-68
2023/07/12 05:17:04;;;;;;;8.10;4.40;;;;;;;22.06;55.95;99669.90;129310;1269;114832;-68
2023/07/12 05:20:12;;;;;;;11.40;4.50;;;;;;;22.18;55.92;99666.02;129348;1270;115125;-68
2023/07/12 05:23:14;;;;;;;7.20;5.30;;;;;;;22.31;55.65;99667.16;129153;1265;114859;-69
2023/07/12 05:26:16;;;;;;;7.80;4.30;;;;;;;22.40;55.37;99666.23;129255;1267;114768;-70
2023/07/12 05:29:18;;;;;;;8.90;4.40;;;;;;;22.46;55.31;99662.70;129220;1273;114870;-68
2023/07/12 05:32:20;;;;;;;9.20;4.60;;;;;;;22.52;55.23;99657.17;129195;1270;129053;-68
2023/07/12 05:35:22;;;;;;;11.00;5.00;;;;;;;22.56;54.80;99645.41;129179;1265;114889;-69
2023/07/12 05:38:24;;;;;;;7.90;4.30;;;;;;;22.53;54.44;99638.28;129285;1270;114743;-67
2023/07/12 05:41:26;;;;;;;12.10;5.90;;;;;;;22.53;54.58;99628.82;129235;1270;114843;-65
2023/07/12 05:44:28;;;;;;;12.60;4.70;;;;;;;22.54;54.25;99624.52;129218;1288;115429;-65
2023/07/12 05:47:30;;;;;;;8.90;5.30;;;;;;;22.52;54.15;99620.45;129322;1265;116304;-68
2023/07/12 05:50:32;;;;;;;11.60;6.00;;;;;;;22.60;54.29;99623.59;128983;1273;115047;-68
2023/07/12 05:53:34;;;;;;;8.10;5.20;;;;;;;22.73;54.18;99629.08;129283;1288;114757;-68
2023/07/12 05:56:36;;;;;;;8.60;5.20;;;;;;;22.84;54.25;99626.05;129345;1288;114839;-69
2023/07/12 05:59:38;;;;;;;13.10;5.60;;;;;;;23.02;54.27;99623.50;128999;1288;115237;-68
2023/07/12 06:02:40;;;;;;;7.20;5.00;;;;;;;23.21;53.99;99614.64;129323;1270;114749;-68
2023/07/12 06:05:44;;;;;;;8.90;5.00;;;;;;;23.42;53.77;99604.50;129391;1284;114752;-70
2023/07/12 06:08:46;;;;;;;11.10;5.10;;;;;;;23.62;53.47;99599.23;129026;1270;114878;-69
2023/07/12 06:11:48;;;;;;;11.00;5.50;;;;;;;23.80;53.53;99595.45;129225;1270;114796;-69
2023/07/12 06:14:50;;;;;;;8.20;5.10;;;;;;;24.03;53.58;99592.29;129346;1288;115020;-70
2023/07/12 06:17:52;;;;;;;8.20;5.00;;;;;;;24.29;53.61;99579.95;129310;1270;128821;-68
2023/07/12 06:20:59;;;;;;;10.30;5.60;;;;;;;24.55;53.41;99574.52;129413;1270;114762;-69
2023/07/12 06:24:01;;;;;;;12.40;5.60;;;;;;;24.83;53.50;99569.08;129388;1265;114912;-69
2023/07/12 06:27:03;;;;;;;11.20;5.50;;;;;;;25.14;53.09;99565.96;129202;1265;114847;-68
2023/07/12 06:30:06;;;;;;;9.60;5.60;;;;;;;25.44;52.61;99565.67;129312;1270;114802;-69
2023/07/12 06:33:10;;;;;;;9.60;6.30;;;;;;;25.72;52.19;99565.88;129311;1265;115282;-69
2023/07/12 06:36:12;;;;;;;12.80;5.80;;;;;;;25.93;51.81;99556.38;129340;1270;120222;-68
2023/07/12 06:39:14;;;;;;;14.50;6.60;;;;;;;26.04;51.50;99546.02;129254;1270;115205;-71
2023/07/12 06:42:16;;;;;;;11.50;6.60;;;;;;;26.14;51.66;99547.08;129447;1271;114780;-70
2023/07/12 06:45:18;;;;;;;12.70;6.80;;;;;;;26.29;51.06;99552.54;129355;1268;115182;-69
2023/07/12 06:48:20;;;;;;;9.30;5.70;;;;;;;26.37;51.04;99556.48;129442;1283;115199;-72
2023/07/12 06:51:22;;;;;;;9.30;6.20;;;;;;;26.45;50.82;99561.44;129593;1267;114724;-68
2023/07/12 06:54:24;;;;;;;11.90;5.80;;;;;;;26.45;50.70;99558.68;129439;1267;114736;-70
2023/07/12 06:57:25;;;;;;;11.90;6.60;;;;;;;26.49;50.52;99562.21;129283;1287;115137;-69
2023/07/12 07:00:27;;;;;;;8.00;6.10;;;;;;;26.56;50.54;99566.27;129259;1283;114796;-70
2023/07/12 07:03:29;;;;;;;17.60;6.60;;;;;;;26.73;50.78;99567.02;128808;1273;115262;-71
2023/07/12 07:06:31;;;;;;;12.60;6.40;;;;;;;26.88;50.58;99565.66;128932;1274;115229;-69
2023/07/12 07:09:36;;;;;;;9.90;6.80;;;;;;;27.07;50.76;99566.33;129009;1268;114923;-68
2023/07/12 07:12:38;;;;;;;;;;;;;;;27.26;50.21;99559.90;129104;1272;116360;-67
2023/07/12 07:15:40;;;;;;;14.40;5.80;;;;;;;27.38;49.91;99555.59;128955;1268;116509;-67
2023/07/12 07:18:42;;;;;;;12.60;6.30;;;;;;;27.43;49.61;99562.30;128999;1273;114884;-70
2023/07/12 07:21:47;;;;;;;11.90;6.80;;;;;;;27.40;49.36;99561.58;128732;1276;119409;-68
2023/07/12 07:24:49;;;;;;;10.20;6.20;;;;;;;27.30;49.26;99565.05;128857;1268;115161;-67
2023/07/12 07:27:51;;;;;;;10.40;6.80;;;;;;;27.20;49.29;99568.84;129062;1270;114963;-67
2023/07/12 07:30:57;;;;;;;12.30;6.70;;;;;;;27.09;49.41;99570.65;129129;1283;114753;-67
2023/07/12 07:33:59;;;;;;;12.10;6.30;;;;;;;26.91;49.10;99565.89;129024;1265;116177;-67
2023/07/12 07:37:01;;;;;;;11.90;6.60;;;;;;;26.66;49.34;99564.59;129276;1270;114720;-70
2023/07/12 07:40:04;;;;;;;11.50;6.80;;;;;;;26.47;49.73;99563.08;129343;1265;115558;-68
2023/07/12 07:43:07;;;;;;;13.30;6.60;;;;;;;26.27;50.14;99562.31;129370;1270;120007;-70
2023/07/12 07:46:10;;;;;;;7.40;6.20;;;;;;;26.12;50.52;99565.98;129102;1284;115251;-65
2023/07/12 07:49:12;;;;;;;10.90;6.80;;;;;;;26.00;51.02;99571.54;129293;1283;114857;-67
2023/07/12 07:52:14;;;;;;;15.60;6.80;;;;;;;25.92;51.39;99585.21;129263;1282;115035;-70
2023/07/12 07:55:16;;;;;;;11.90;7.00;;;;;;;25.87;51.66;99613.45;129326;1288;114766;-72
2023/07/12 07:58:19;;;;;;;8.90;6.80;;;;;;;25.85;51.91;99634.36;129213;1286;114783;-68
2023/07/12 08:01:21;;;;;;;9.20;6.90;;;;;;;25.84;52.28;99651.79;129316;1288;114763;-68
2023/07/12 08:04:23;;;;;;;17.60;7.70;;;;;;;25.85;52.56;99663.65;129310;1281;115205;-66
2023/07/12 08:07:25;;;;;;;12.70;6.90;;;;;;;25.85;52.82;99674.01;129359;1286;114833;-64
2023/07/12 08:10:28;;;;;;;20.60;7.40;;;;;;;25.84;52.85;99688.05;129299;1282;114763;-67
2023/07/12 08:13:30;;;;;;;10.00;7.30;;;;;;;25.78;52.83;99694.48;129326;1265;114776;-72
2023/07/12 08:16:35;;;;;;;13.00;7.20;;;;;;;25.72;52.92;99689.50;129321;1286;114947;-66
2023/07/12 08:19:37;;;;;;;18.40;7.30;;;;;;;25.66;53.16;99682.58;129125;1271;119549;-67
2023/07/12 08:22:39;;;;;;;14.80;7.30;;;;;;;25.61;53.37;99683.91;129293;1270;114830;-70
2023/07/12 08:25:41;;;;;;;11.50;7.40;;;;;;;25.60;53.75;99675.66;129394;1271;114813;-71
2023/07/12 08:28:43;;;;;;;12.00;7.30;;;;;;;25.62;53.60;99678.36;129367;1265;115295;-69
2023/07/12 08:31:45;;;;;;;14.50;8.00;;;;;;;25.64;53.91;99681.94;129136;1265;114915;-69
2023/07/12 08:34:47;;;;;;;10.60;6.60;;;;;;;25.65;53.94;99678.86;129276;1273;114756;-67
2023/07/12 08:37:49;;;;;;;11.90;7.60;;;;;;;25.67;54.22;99678.98;128956;1272;114917;-68
2023/07/12 08:40:51;;;;;;;14.60;8.30;;;;;;;25.72;54.46;99689.38;129227;1287;114862;-70
2023/07/12 08:43:53;;;;;;;18.10;7.30;;;;;;;25.79;54.41;99682.45;129353;1281;114679;-71
2023/07/12 08:46:57;;;;;;;16.00;7.60;;;;;;;25.90;54.58;99682.73;129147;1274;115237;-69
2023/07/12 08:49:59;;;;;;;14.00;8.20;;;;;;;26.01;54.60;99681.55;129573;1270;114794;-73
2023/07/12 08:53:04;;;;;;;19.40;8.00;;;;;;;26.07;54.49;99679.55;129311;1281;115279;-68
2023/07/12 08:56:15;;;;;;;15.50;7.50;;;;;;;26.09;54.46;99682.52;129576;1270;114778;-68
2023/07/12 08:59:17;;;;;;;15.50;7.80;;;;;;;26.07;54.52;99680.42;129513;1270;120306;-67
2023/07/12 09:02:22;;;;;;;12.40;7.60;;;;;;;26.05;54.66;99684.73;129330;1270;115360;-68
2023/07/12 09:05:24;;;;;;;16.20;7.80;;;;;;;26.10;54.74;99689.69;129315;1267;114742;-68
2023/07/12 09:08:36;;;;;;;18.10;8.00;;;;;;;26.16;54.86;99700.29;129309;1281;115374;-66
2023/07/12 09:11:39;;;;;;;14.10;7.00;;;;;;;26.20;54.55;99697.77;129317;1270;114770;-65
2023/07/12 09:14:41;;;;;;;14.90;8.00;;;;;;;26.21;54.55;99691.54;129276;1271;114771;-68
2023/07/12 09:17:44;;;;;;;10.30;7.50;;;;;;;26.23;54.59;99684.30;129330;1281;115434;-68
2023/07/12 09:20:50;;;;;;;13.10;8.40;;;;;;;26.32;54.50;99680.73;128980;1273;114843;-67
2023/07/12 09:23:54;;;;;;;11.60;5.90;;;;;;;26.41;54.52;99686.70;129072;1270;114834;-70
2023/07/12 09:27:03;;;;;;;8.00;6.90;;;;;;;26.51;54.43;99693.62;129030;1270;114894;-68
2023/07/12 09:30:06;;;;;;;9.30;6.50;;;;;;;26.59;54.33;99698.92;129268;1270;114773;-69
2023/07/12 09:33:17;;;;;;;14.80;8.60;;;;;;;26.61;54.18;99700.07;129405;1267;114865;-69
2023/07/12 09:36:19;;;;;;;15.70;7.40;;;;;;;26.62;54.36;99700.36;128976;1270;115751;-69
2023/07/12 09:39:22;;;;;;;16.50;7.20;;;;;;;26.64;54.65;99707.56;129273;1271;116045;-68
2023/07/12 09:42:25;;;;;;;10.40;7.50;;;;;;;26.64;54.40;99713.29;129273;1270;114789;-69
2023/07/12 09:45:30;;;;;;;11.50;7.90;;;;;;;26.62;54.48;99708.19;129339;1269;114783;-71
2023/07/12 09:48:42;;;;;;;10.60;7.20;;;;;;;26.64;54.88;99704.70;129315;1270;120197;-69
2023/07/12 09:52:00;;;;;;;11.10;7.60;;;;;;;26.68;54.65;99699.88;129074;1270;115252;-69
2023/07/12 09:55:05;;;;;;;8.40;7.10;;;;;;;26.77;54.83;99697.17;128962;1276;114975;-68
2023/07/12 09:58:23;;;;;;;12.20;9.50;;;;;;;26.94;54.92;99696.04;129081;1273;114929;-76
2023/07/12 10:01:46;;;;;;;12.30;8.60;;;;;;;27.15;54.67;99690.23;129476;1270;114775;-76
2023/07/12 10:05:11;;;;;;;10.10;8.30;;;;;;;27.45;55.15;99686.52;129037;1268;119283;-75
2023/07/12 10:08:15;;;;;;;10.60;8.70;;;;;;;27.85;54.83;99688.55;129126;1270;114760;-76
2023/07/12 10:11:27;;;;;;;8.20;6.80;;;;;;;28.17;54.30;99691.42;129211;1270;114741;-76
2023/07/12 10:14:35;;;;;;;11.80;7.90;;;;;;;28.48;54.16;99692.01;129126;1288;114767;-76
2023/07/12 10:17:39;;;;;;;12.70;8.50;;;;;;;28.89;53.94;99697.64;129165;1288;114856;-76
2023/07/12 10:20:41;;;;;;;12.70;7.50;;;;;;;29.29;53.39;99702.21;129160;1270;120228;-75
2023/07/12 10:23:47;;;;;;;13.00;7.30;;;;;;;29.64;53.05;99701.83;129140;1272;114781;-76
2023/07/12 10:26:49;;;;;;;10.00;7.30;;;;;;;29.93;52.50;99701.27;129124;1273;114757;-75
2023/07/12 10:29:57;;;;;;;9.20;7.20;;;;;;;30.13;51.49;99696.95;129198;1270;114843;-74
2023/07/12 10:33:09;;;;;;;13.90;7.20;;;;;;;30.21;50.91;99692.44;129131;1273;114813;-76
2023/07/12 10:36:16;;;;;;;8.00;7.10;;;;;;;30.26;50.64;99687.70;129003;1269;119384;-77
2023/07/12 10:39:18;;;;;;;8.70;6.80;;;;;;;30.38;50.40;99682.18;129321;1270;115216;-75
2023/07/12 10:42:43;;;;;;;12.80;6.60;;;;;;;30.55;49.80;99680.66;129270;1271;114832;-75
2023/07/12 10:45:45;;;;;;;;;;;;;;;30.74;48.94;99680.34;129411;1271;114761;-75
2023/07/12 10:48:50;;;;;;;7.30;5.70;;;;;;;30.89;48.19;99676.66;129257;1286;114863;-74
2023/07/12 10:52:26;;;;;;;7.60;6.50;;;;;;;31.04;47.91;99671.47;129314;1270;120027;-76
2023/07/12 10:55:34;;;;;;;7.80;6.30;;;;;;;31.26;47.61;99664.00;129064;1289;114955;-75
2023/07/12 10:58:52;;;;;;;7.70;6.50;;;;;;;31.37;47.26;99666.98;129052;1271;115292;-74
2023/07/12 11:01:55;;;;;;;9.80;6.60;;;;;;;31.46;47.00;99659.70;129088;1273;114854;-77
2023/07/12 11:04:57;;;;;;;11.90;5.80;;;;;;;31.45;46.67;99656.27;129267;1270;114829;-75
2023/07/12 11:08:02;;;;;;;9.60;5.90;;;;;;;31.46;46.19;99650.33;129232;1270;114797;-76
2023/07/12 11:11:08;;;;;;;7.40;5.70;;;;;;;31.54;45.96;99643.77;129238;1267;114742;-77
2023/07/12 11:14:40;;;;;;;7.30;6.30;;;;;;;31.65;45.50;99640.52;129360;1273;114829;-77
2023/07/12 11:17:51;;;;;;;11.50;5.80;;;;;;;31.82;45.10;99635.61;129428;1265;114863;-75
2023/07/12 11:21:03;;;;;;;7.20;6.10;;;;;;;32.08;44.97;99633.98;129474;1265;114834;-76
2023/07/12 11:24:59;;;;;;;6.60;5.70;;;;;;;32.37;44.88;99634.73;129347;1268;119309;-76
2023/07/12 11:28:24;;;;;;;8.80;6.00;;;;;;;32.57;43.94;99640.37;128857;1279;114820;-76
2023/07/12 11:31:32;;;;;;;9.60;6.20;;;;;;;32.63;43.30;99635.91;128910;1277;114983;-75
2023/07/12 11:34:38;;;;;;;8.40;6.30;;;;;;;32.66;43.06;99637.72;128620;1292;115141;-76
2023/07/12 11:37:46;;;;;;;7.80;5.20;;;;;;;32.68;42.87;99634.80;128728;1287;114963;-77
2023/07/12 11:40:51;;;;;;;6.40;3.60;;;;;;;32.71;42.72;99623.12;128351;1279;119286;-75
2023/07/12 11:44:06;;;;;;;6.50;5.50;;;;;;;32.78;42.40;99616.26;128644;1274;114852;-76
2023/07/12 11:47:11;;;;;;;8.90;5.40;;;;;;;32.83;42.03;99611.70;128648;1277;114878;-75
2023/07/12 11:50:19;;;;;;;5.90;5.00;;;;;;;32.88;42.04;99617.36;128357;1279;114775;-76
2023/07/12 11:53:21;;;;;;;7.90;5.50;;;;;;;32.95;41.68;99617.57;128429;1287;114767;-75
2023/07/12 11:56:24;;;;;;;6.90;6.20;;;;;;;33.00;41.36;99610.98;128438;1276;115038;-75
2023/07/12 11:59:37;;;;;;;6.40;5.50;;;;;;;33.08;41.34;99604.05;128443;1276;114936;-74
2023/07/12 12:02:41;;;;;;;11.40;5.80;;;;;;;33.15;41.28;99600.60;128646;1284;114872;-75
2023/07/12 12:05:44;;;;;;;6.80;5.20;;;;;;;33.24;41.09;99600.52;129322;1287;114731;-74
2023/07/12 12:08:50;;;;;;;6.80;5.60;;;;;;;33.31;40.82;99600.91;129318;1271;115380;-75
2023/07/12 12:11:54;;;;;;;8.00;5.00;;;;;;;33.40;40.48;99601.58;129296;1285;120387;-74
2023/07/12 12:14:57;;;;;;;7.40;4.70;;;;;;;33.45;40.01;99601.05;129273;1286;114837;-76
2023/07/12 12:18:05;;;;;;;11.60;4.40;;;;;;;33.47;39.97;99603.45;129142;1280;114792;-76
2023/07/12 12:21:15;;;;;;;6.50;3.90;;;;;;;33.50;39.53;99597.67;129321;1267;114735;-75
2023/07/12 12:24:20;;;;;;;6.20;4.30;;;;;;;33.50;39.18;99595.77;129360;1281;114937;-76
2023/07/12 12:27:36;;;;;;;6.70;3.80;;;;;;;33.50;39.05;99599.55;129260;1288;120263;-76
2023/07/12 12:30:38;;;;;;;5.80;3.80;;;;;;;33.48;38.99;99602.84;129092;1279;114914;-77
2023/07/12 12:33:51;;;;;;;4.70;4.00;;;;;;;33.44;38.93;99608.32;129410;1281;114819;-76
2023/07/12 12:36:58;;;;;;;8.80;3.60;;;;;;;33.42;38.81;99609.77;129376;1283;114781;-77
2023/07/12 12:40:06;;;;;;;3.90;3.50;;;;;;;33.34;38.25;99612.15;129227;1273;115164;-76
2023/07/12 12:43:18;;;;;;;3.60;2.80;;;;;;;33.28;38.09;99610.77;129365;1288;120368;-76
2023/07/12 12:46:20;;;;;;;6.30;2.40;;;;;;;33.27;37.57;99607.96;129384;1267;114785;-74
2023/07/12 12:49:26;;;;;;;3.20;2.80;;;;;;;33.30;37.50;99602.05;129285;1270;116382;-75
2023/07/12 12:52:32;;;;;;;4.80;2.50;;;;;;;33.40;37.64;99598.12;129404;1271;114781;-75
2023/07/12 12:55:36;;;;;;;5.40;3.10;;;;;;;33.52;37.60;99594.33;129378;1288;114764;-74
2023/07/12 12:58:38;;;;;;;3.40;3.10;;;;;;;33.59;37.51;99592.36;129135;1285;119316;-75
2023/07/12 13:01:41;;;;;;;3.80;3.10;;;;;;;33.57;37.40;99590.55;129323;1268;114837;-75
2023/07/12 13:04:44;;;;;;;5.00;2.60;;;;;;;33.49;37.04;99589.15;129365;1270;116432;-75
2023/07/12 13:07:46;;;;;;;5.00;2.90;;;;;;;33.35;37.12;99590.34;129339;1270;115281;-74
2023/07/12 13:10:49;;;;;;;3.30;2.90;;;;;;;33.22;37.06;99590.38;129379;1288;115135;-75
2023/07/12 13:13:51;;;;;;;3.30;3.00;;;;;;;33.07;37.34;99600.45;129095;1288;114806;-74
2023/07/12 13:16:53;;;;;;;2.60;2.40;;;;;;;32.99;37.45;99600.92;129322;1288;114851;-75
2023/07/12 13:19:55;;;;;;;7.40;3.10;;;;;;;33.01;37.63;99598.59;129222;1265;115071;-73
2023/07/12 13:22:58;;;;;;;3.90;3.20;;;;;;;33.06;37.49;99603.62;129359;1271;114756;-75
2023/07/12 13:26:01;;;;;;;3.10;2.70;;;;;;;33.05;37.74;99600.42;129358;1286;115493;-76
2023/07/12 13:29:14;;;;;;;3.10;2.60;;;;;;;33.03;37.42;99595.38;129207;1278;114841;-75
2023/07/12 13:32:18;;;;;;;5.10;3.20;;;;;;;33.01;37.21;99591.36;129306;1271;114768;-75
2023/07/12 13:35:22;;;;;;;3.40;2.90;;;;;;;33.00;37.26;99592.21;129340;1271;119219;-75
2023/07/12 13:38:24;;;;;;;6.20;3.40;;;;;;;32.96;37.58;99584.24;129147;1272;114787;-73
2023/07/12 13:41:26;;;;;;;2.80;2.20;;;;;;;32.92;37.45;99582.78;129006;1268;114787;-75
2023/07/12 13:44:28;;;;;;;6.40;3.10;;;;;;;32.85;37.07;99576.38;129229;1281;115381;-74
2023/07/12 13:47:31;;;;;;;3.90;2.80;;;;;;;32.75;37.30;99580.34;129230;1289;114785;-75
2023/07/12 13:50:33;;;;;;;5.30;3.30;;;;;;;32.71;37.41;99580.58;129259;1272;115211;-75
2023/07/12 13:53:35;;;;;;;6.60;3.40;;;;;;;32.74;37.43;99580.09;129343;1278;114885;-74
2023/07/12 13:56:38;;;;;;;6.40;3.80;;;;;;;32.80;37.45;99579.10;129382;1269;114761;-74
2023/07/12 13:59:40;;;;;;;5.70;3.80;;;;;;;32.83;37.54;99570.65;129393;1282;115179;-76
2023/07/12 14:02:44;;;;;;;4.50;3.10;;;;;;;32.83;37.51;99571.80;129381;1270;114785;-77
2023/07/12 14:05:46;;;;;;;12.40;4.30;;;;;;;32.79;37.35;99574.50;128979;1270;114932;-75